Time;durP1;ratioP1;P1;durP2;ratioP2;P2;SDS_P1;SDS_P2;PMS_P1;PMS_P2;Temp;Humidity;BMP_temperature;BMP_pressure;BME280_temperature;BME280_humidity;BME280_pressure;Samples;Min_cycle;Max_cycle;Signal;HPM_P1;HPM_P2
2023/09/12 00:01:37;;;;;;;7.75;7.25;;;;;;;;;;5025016;28;20392;-83
2023/09/12 00:04:03;;;;;;;8.65;7.93;;;;;;;;;;5025237;28;20488;-84
2023/09/12 00:06:29;;;;;;;8.03;7.33;;;;;;;;;;5025244;28;20385;-83
2023/09/12 00:08:55;;;;;;;7.70;7.20;;;;;;;;;;5023009;28;20397;-84
2023/09/12 00:11:21;;;;;;;8.10;7.47;;;;;;;;;;5023882;28;20424;-83
2023/09/12 00:13:47;;;;;;;7.57;7.07;;;;;;;;;;5023891;28;20419;-83
2023/09/12 00:16:13;;;;;;;7.95;7.40;;;;;;;;;;5022694;28;20404;-83
2023/09/12 00:18:39;;;;;;;8.02;7.50;;;;;;;;;;5023732;28;20925;-83
2023/09/12 00:21:05;;;;;;;7.68;7.15;;;;;;;;;;5022729;28;20401;-83
2023/09/12 00:23:31;;;;;;;8.30;7.70;;;;;;;;;;5022570;28;20393;-83
2023/09/12 00:25:58;;;;;;;8.30;7.70;;;;;;;;;;5023317;28;20419;-85
2023/09/12 00:28:23;;;;;;;7.53;7.03;;;;;;;;;;5022298;28;20385;-83
2023/09/12 00:30:50;;;;;;;8.30;7.70;;;;;;;;;;5021834;28;20400;-83
2023/09/12 00:33:16;;;;;;;7.82;7.22;;;;;;;;;;5014348;28;20877;-83
2023/09/12 00:35:42;;;;;;;8.02;7.43;;;;;;;;;;5023136;28;20388;-84
2023/09/12 00:38:09;;;;;;;8.25;7.68;;;;;;;;;;5022854;28;20447;-83
2023/09/12 00:40:35;;;;;;;8.43;7.72;;;;;;;;;;5023092;28;20393;-83
2023/09/12 00:43:01;;;;;;;8.30;7.60;;;;;;;;;;5033585;28;20429;-83
2023/09/12 00:45:27;;;;;;;8.02;7.47;;;;;;;;;;5022181;28;20389;-83
2023/09/12 00:47:53;;;;;;;7.78;7.15;;;;;;;;;;5023259;28;20462;-83
2023/09/12 00:50:21;;;;;;;8.15;7.47;;;;;;;;;;5022257;28;20389;-83
2023/09/12 00:52:47;;;;;;;8.13;7.50;;;;;;;;;;5021955;28;20396;-83
2023/09/12 00:55:13;;;;;;;8.48;7.88;;;;;;;;;;5021905;28;20400;-83
2023/09/12 00:57:39;;;;;;;8.18;7.60;;;;;;;;;;5022253;28;20405;-84
2023/09/12 01:00:11;;;;;;;8.48;7.78;;;;;;;;;;5021903;28;20432;-83
2023/09/12 01:02:40;;;;;;;8.27;7.68;;;;;;;;;;5022002;28;20447;-83
2023/09/12 01:05:07;;;;;;;8.32;7.70;;;;;;;;;;5021488;28;20859;-85
2023/09/12 01:07:33;;;;;;;8.10;7.50;;;;;;;;;;5021376;28;20389;-83
2023/09/12 01:09:59;;;;;;;7.72;7.22;;;;;;;;;;5020668;28;20393;-83
2023/09/12 01:12:25;;;;;;;7.65;7.13;;;;;;;;;;5020863;28;20392;-83
2023/09/12 01:14:51;;;;;;;7.63;7.13;;;;;;;;;;5020965;28;20396;-83
2023/09/12 01:17:17;;;;;;;7.97;7.38;;;;;;;;;;5021815;28;20389;-83
2023/09/12 01:19:43;;;;;;;8.25;7.65;;;;;;;;;;5021130;28;20941;-82
2023/09/12 01:22:16;;;;;;;8.68;8.00;;;;;;;;;;5021387;28;20405;-83
2023/09/12 01:25:04;;;;;;;8.55;7.82;;;;;;;;;;5020991;28;20873;-83
2023/09/12 01:27:39;;;;;;;8.35;7.65;;;;;;;;;;5018869;28;20392;-83
2023/09/12 01:30:06;;;;;;;8.15;7.55;;;;;;;;;;5020232;28;20540;-82
2023/09/12 01:32:33;;;;;;;8.57;7.97;;;;;;;;;;5021312;28;20384;-83
2023/09/12 01:34:59;;;;;;;8.02;7.32;;;;;;;;;;5021128;28;20400;-83
2023/09/12 01:37:26;;;;;;;8.30;7.70;;;;;;;;;;5021082;28;20385;-83
2023/09/12 01:39:52;;;;;;;8.65;8.05;;;;;;;;;;5028913;28;20486;-83
2023/09/12 01:42:21;;;;;;;8.98;8.30;;;;;;;;;;5024035;28;20396;-82
2023/09/12 01:44:47;;;;;;;8.48;7.88;;;;;;;;;;5020491;28;20384;-83
2023/09/12 01:47:15;;;;;;;8.32;7.72;;;;;;;;;;5021037;28;20422;-83
2023/09/12 01:49:42;;;;;;;8.82;8.13;;;;;;;;;;5019785;28;20400;-83
2023/09/12 01:52:09;;;;;;;8.98;8.18;;;;;;;;;;5020980;28;20385;-83
2023/09/12 01:54:35;;;;;;;9.00;8.40;;;;;;;;;;5020308;28;20393;-83
2023/09/12 01:57:01;;;;;;;8.20;7.70;;;;;;;;;;5020871;28;20389;-83
2023/09/12 01:59:29;;;;;;;8.52;7.93;;;;;;;;;;5020214;28;20408;-83
2023/09/12 02:01:55;;;;;;;8.60;7.80;;;;;;;;;;5021112;28;20424;-83
2023/09/12 02:04:21;;;;;;;8.85;8.25;;;;;;;;;;5028292;28;20828;-83
2023/09/12 02:06:47;;;;;;;8.68;8.07;;;;;;;;;;5026157;28;20385;-83
2023/09/12 02:09:13;;;;;;;8.57;7.90;;;;;;;;;;5026283;28;20403;-83
2023/09/12 02:11:39;;;;;;;8.60;7.90;;;;;;;;;;5021795;28;20392;-83
2023/09/12 02:14:05;;;;;;;8.23;7.63;;;;;;;;;;5021195;28;20440;-83
2023/09/12 02:16:31;;;;;;;8.48;7.88;;;;;;;;;;5021184;28;20392;-83
2023/09/12 02:18:57;;;;;;;8.50;7.88;;;;;;;;;;5021210;28;20551;-85
2023/09/12 02:21:23;;;;;;;8.30;7.70;;;;;;;;;;5020987;28;20416;-83
2023/09/12 02:23:49;;;;;;;8.40;7.80;;;;;;;;;;5016997;28;20411;-83
2023/09/12 02:26:15;;;;;;;8.40;7.82;;;;;;;;;;5012326;28;20388;-83
2023/09/12 02:28:41;;;;;;;8.50;7.90;;;;;;;;;;5019322;28;20399;-83
2023/09/12 02:31:11;;;;;;;8.10;7.50;;;;;;;;;;5021175;28;20381;-83
2023/09/12 02:33:38;;;;;;;8.70;8.10;;;;;;;;;;5021537;28;20478;-83
2023/09/12 02:36:04;;;;;;;8.20;7.60;;;;;;;;;;5037106;28;20392;-83
2023/09/12 02:38:30;;;;;;;8.98;8.27;;;;;;;;;;5028023;28;20416;-83
2023/09/12 02:40:56;;;;;;;8.38;7.88;;;;;;;;;;5027478;28;20423;-82
2023/09/12 02:43:22;;;;;;;8.30;7.70;;;;;;;;;;5021939;28;20831;-83
2023/09/12 02:45:48;;;;;;;8.07;7.47;;;;;;;;;;5021975;28;20389;-85
2023/09/12 02:48:14;;;;;;;7.68;7.18;;;;;;;;;;5021906;28;20384;-84
2023/09/12 02:50:40;;;;;;;8.80;8.10;;;;;;;;;;5021478;28;20388;-83
2023/09/12 02:53:06;;;;;;;8.30;7.67;;;;;;;;;;5022053;28;20481;-83
2023/09/12 02:55:32;;;;;;;8.70;8.00;;;;;;;;;;5021284;28;20381;-83
2023/09/12 02:57:58;;;;;;;8.10;7.40;;;;;;;;;;5023640;28;20893;-84
2023/09/12 03:00:24;;;;;;;8.73;8.02;;;;;;;;;;5024585;28;20404;-83
2023/09/12 03:02:50;;;;;;;8.60;8.00;;;;;;;;;;5024839;28;20416;-83
2023/09/12 03:05:16;;;;;;;8.32;7.72;;;;;;;;;;5025387;28;20419;-83
2023/09/12 03:07:42;;;;;;;8.57;7.97;;;;;;;;;;5024794;28;20439;-83
2023/09/12 03:10:08;;;;;;;8.50;7.90;;;;;;;;;;5024791;28;20778;-83
2023/09/12 03:12:37;;;;;;;8.63;8.02;;;;;;;;;;5025512;28;20396;-84
2023/09/12 03:15:03;;;;;;;8.90;8.30;;;;;;;;;;5024038;28;20411;-84
2023/09/12 03:17:29;;;;;;;8.38;7.78;;;;;;;;;;5024426;28;20388;-84
2023/09/12 03:19:55;;;;;;;9.07;8.38;;;;;;;;;;5025221;28;20506;-83
2023/09/12 03:22:21;;;;;;;9.18;8.45;;;;;;;;;;5024951;28;20874;-83
2023/09/12 03:24:47;;;;;;;8.43;7.82;;;;;;;;;;5024831;28;20392;-83
2023/09/12 03:27:13;;;;;;;8.85;8.05;;;;;;;;;;5024727;28;20400;-83
2023/09/12 03:29:39;;;;;;;8.68;8.07;;;;;;;;;;5025554;28;20403;-83
2023/09/12 03:32:05;;;;;;;9.07;8.37;;;;;;;;;;5024818;28;20384;-83
2023/09/12 03:34:31;;;;;;;8.82;8.23;;;;;;;;;;5024379;28;20727;-85
2023/09/12 03:36:57;;;;;;;8.85;8.13;;;;;;;;;;5034823;28;20401;-83
2023/09/12 03:39:23;;;;;;;8.82;8.13;;;;;;;;;;5032403;28;20443;-84
2023/09/12 03:41:49;;;;;;;8.75;8.15;;;;;;;;;;5031279;28;20430;-85
2023/09/12 03:44:15;;;;;;;9.05;8.30;;;;;;;;;;5031742;28;20419;-84
2023/09/12 03:46:41;;;;;;;8.68;7.97;;;;;;;;;;5030382;28;20403;-84
2023/09/12 03:49:07;;;;;;;8.00;7.50;;;;;;;;;;5029317;28;20405;-84
2023/09/12 03:51:35;;;;;;;8.73;8.00;;;;;;;;;;5026705;28;20393;-83
2023/09/12 03:54:01;;;;;;;8.55;7.95;;;;;;;;;;5024245;28;20491;-83
2023/09/12 03:56:26;;;;;;;8.80;8.00;;;;;;;;;;5026960;28;20385;-83
2023/09/12 03:58:56;;;;;;;8.50;7.90;;;;;;;;;;5027658;28;20425;-83
2023/09/12 04:01:22;;;;;;;8.65;7.95;;;;;;;;;;5027498;28;20842;-83
2023/09/12 04:03:48;;;;;;;8.80;8.20;;;;;;;;;;5026847;28;20432;-83
2023/09/12 04:06:14;;;;;;;8.45;7.85;;;;;;;;;;5026832;28;20381;-84
2023/09/12 04:08:40;;;;;;;8.02;7.32;;;;;;;;;;5025828;28;20396;-84
2023/09/12 04:11:06;;;;;;;9.07;8.37;;;;;;;;;;5031097;28;20389;-84
2023/09/12 04:13:32;;;;;;;8.38;7.82;;;;;;;;;;5025331;28;20841;-85
2023/09/12 04:15:58;;;;;;;8.40;7.80;;;;;;;;;;5025479;28;20432;-86
2023/09/12 04:18:24;;;;;;;8.43;7.85;;;;;;;;;;5024573;28;20890;-84
2023/09/12 04:20:50;;;;;;;8.93;8.13;;;;;;;;;;5023275;28;20396;-84
2023/09/12 04:23:16;;;;;;;8.52;7.85;;;;;;;;;;5022674;28;20392;-83
2023/09/12 04:25:46;;;;;;;9.77;8.97;;;;;;;;;;5024154;28;20412;-84
2023/09/12 04:28:12;;;;;;;8.60;8.00;;;;;;;;;;5023987;28;20476;-83
2023/09/12 04:30:39;;;;;;;8.77;8.02;;;;;;;;;;5023530;28;20385;-84
2023/09/12 04:33:05;;;;;;;8.93;8.13;;;;;;;;;;5022491;28;20472;-85
2023/09/12 04:35:35;;;;;;;8.95;8.05;;;;;;;;;;5023422;28;20416;-82
2023/09/12 04:38:01;;;;;;;8.40;7.70;;;;;;;;;;5023581;28;20813;-84
2023/09/12 04:40:27;;;;;;;8.70;8.10;;;;;;;;;;5022629;28;20491;-83
2023/09/12 04:42:54;;;;;;;8.70;8.02;;;;;;;;;;5035016;28;20391;-83
2023/09/12 04:45:20;;;;;;;8.88;8.27;;;;;;;;;;5028292;28;20416;-83
2023/09/12 04:47:46;;;;;;;9.17;8.47;;;;;;;;;;5021138;28;20389;-82
2023/09/12 04:50:12;;;;;;;8.60;8.00;;;;;;;;;;5022059;28;20775;-83
2023/09/12 04:52:38;;;;;;;8.43;7.80;;;;;;;;;;5020751;28;20447;-84
2023/09/12 04:55:04;;;;;;;8.70;8.10;;;;;;;;;;5020967;28;20384;-83
2023/09/12 04:57:30;;;;;;;8.65;8.05;;;;;;;;;;5020528;28;20735;-83
2023/09/12 04:59:58;;;;;;;8.93;8.13;;;;;;;;;;5021078;28;20431;-83
2023/09/12 05:02:25;;;;;;;8.90;8.30;;;;;;;;;;5021271;28;20400;-83
2023/09/12 05:04:51;;;;;;;8.80;8.10;;;;;;;;;;5021247;28;20768;-83
2023/09/12 05:07:17;;;;;;;9.07;8.38;;;;;;;;;;5021746;28;20388;-83
2023/09/12 05:09:43;;;;;;;8.93;8.23;;;;;;;;;;5020760;28;20393;-83
2023/09/12 05:12:09;;;;;;;8.60;7.90;;;;;;;;;;5020922;28;20431;-84
2023/09/12 05:14:35;;;;;;;9.43;8.57;;;;;;;;;;5021102;28;20885;-83
2023/09/12 05:17:01;;;;;;;9.02;8.32;;;;;;;;;;5020978;28;20404;-83
2023/09/12 05:19:28;;;;;;;9.18;8.27;;;;;;;;;;5021437;28;20412;-83
2023/09/12 05:21:54;;;;;;;8.27;7.78;;;;;;;;;;5020047;28;20440;-83
2023/09/12 05:24:21;;;;;;;9.25;8.45;;;;;;;;;;5020377;28;20397;-83
2023/09/12 05:26:49;;;;;;;9.20;8.50;;;;;;;;;;5021320;28;20399;-83
2023/09/12 05:29:15;;;;;;;8.63;8.02;;;;;;;;;;5021608;28;20389;-83
2023/09/12 05:31:41;;;;;;;8.30;7.70;;;;;;;;;;5019786;28;20514;-85
2023/09/12 05:34:07;;;;;;;8.52;7.93;;;;;;;;;;5023905;28;20417;-83
2023/09/12 05:36:33;;;;;;;8.73;8.10;;;;;;;;;;5029683;28;20417;-83
2023/09/12 05:38:59;;;;;;;8.32;7.72;;;;;;;;;;5020048;28;20488;-83
2023/09/12 05:41:25;;;;;;;8.50;7.80;;;;;;;;;;5021157;28;20389;-84
2023/09/12 05:43:51;;;;;;;8.70;8.10;;;;;;;;;;5021237;28;20468;-82
2023/09/12 05:46:17;;;;;;;8.48;7.80;;;;;;;;;;5020534;28;20395;-82
2023/09/12 05:48:43;;;;;;;8.82;8.13;;;;;;;;;;5020920;28;20858;-83
2023/09/12 05:51:09;;;;;;;8.90;8.10;;;;;;;;;;5020423;28;20491;-83
2023/09/12 05:53:35;;;;;;;8.80;8.00;;;;;;;;;;5025602;28;20392;-83
2023/09/12 05:56:01;;;;;;;8.93;8.23;;;;;;;;;;5024903;28;20388;-84
2023/09/12 05:58:27;;;;;;;8.77;8.05;;;;;;;;;;5022362;28;20444;-83
2023/09/12 06:00:53;;;;;;;8.45;7.80;;;;;;;;;;5021848;28;20404;-83
2023/09/12 06:03:19;;;;;;;8.80;8.10;;;;;;;;;;5021381;28;20395;-83
2023/09/12 06:05:45;;;;;;;9.25;8.55;;;;;;;;;;5021725;28;20476;-83
2023/09/12 06:08:11;;;;;;;8.38;7.65;;;;;;;;;;5021019;28;20381;-83
2023/09/12 06:10:37;;;;;;;9.52;8.63;;;;;;;;;;5023710;28;20478;-85
2023/09/12 06:13:03;;;;;;;9.03;8.23;;;;;;;;;;5019844;28;20567;-85
2023/09/12 06:15:29;;;;;;;9.88;8.88;;;;;;;;;;5020959;28;20452;-83
2023/09/12 06:17:55;;;;;;;8.80;8.20;;;;;;;;;;5021159;28;20427;-83
2023/09/12 06:20:22;;;;;;;9.05;8.25;;;;;;;;;;5035851;28;20775;-83
2023/09/12 06:22:49;;;;;;;9.13;8.23;;;;;;;;;;5019494;28;20380;-83
2023/09/12 06:25:15;;;;;;;8.50;7.70;;;;;;;;;;5019917;28;20381;-83
2023/09/12 06:27:41;;;;;;;9.52;8.63;;;;;;;;;;5018735;28;20393;-83
2023/09/12 06:30:07;;;;;;;8.77;7.97;;;;;;;;;;5019083;28;20392;-85
2023/09/12 06:32:33;;;;;;;8.68;7.97;;;;;;;;;;5023615;28;20400;-83
2023/09/12 06:34:59;;;;;;;9.13;8.33;;;;;;;;;;5023549;28;20397;-83
2023/09/12 06:37:25;;;;;;;9.00;8.02;;;;;;;;;;5022995;28;20403;-84
2023/09/12 06:39:51;;;;;;;8.65;8.02;;;;;;;;;;5024246;28;20866;-83
2023/09/12 06:42:17;;;;;;;9.20;8.40;;;;;;;;;;5025860;28;20390;-83
2023/09/12 06:44:43;;;;;;;9.32;8.43;;;;;;;;;;5024341;28;20396;-84
2023/09/12 06:47:10;;;;;;;9.32;8.52;;;;;;;;;;5022597;28;20416;-83
2023/09/12 06:49:37;;;;;;;8.73;8.13;;;;;;;;;;5023812;28;20384;-83
2023/09/12 06:52:03;;;;;;;9.00;8.30;;;;;;;;;;5023486;28;20831;-84
2023/09/12 06:54:29;;;;;;;9.35;8.55;;;;;;;;;;5022996;28;20400;-84
2023/09/12 06:56:55;;;;;;;8.43;7.68;;;;;;;;;;5023023;28;20458;-84
2023/09/12 06:59:21;;;;;;;8.90;8.18;;;;;;;;;;5022830;28;20948;-84
2023/09/12 07:01:47;;;;;;;8.80;8.10;;;;;;;;;;5022778;28;20428;-83
2023/09/12 07:04:13;;;;;;;8.75;8.00;;;;;;;;;;5024847;28;20868;-84
2023/09/12 07:06:39;;;;;;;12.57;8.57;;;;;;;;;;5027130;28;20403;-83
2023/09/12 07:09:06;;;;;;;9.80;8.90;;;;;;;;;;5025131;28;20397;-84
2023/09/12 07:11:32;;;;;;;9.18;8.32;;;;;;;;;;5021933;28;20464;-83
2023/09/12 07:13:58;;;;;;;9.57;8.70;;;;;;;;;;5024130;28;20389;-83
2023/09/12 07:16:24;;;;;;;9.07;8.27;;;;;;;;;;5022667;28;20885;-84
2023/09/12 07:18:50;;;;;;;8.60;7.93;;;;;;;;;;5051241;28;20424;-84
2023/09/12 07:21:16;;;;;;;9.07;8.38;;;;;;;;;;5023807;28;20401;-84
2023/09/12 07:23:42;;;;;;;8.17;7.57;;;;;;;;;;5028588;28;20472;-84
2023/09/12 07:26:12;;;;;;;9.02;8.20;;;;;;;;;;5032639;28;20404;-84
2023/09/12 07:28:38;;;;;;;9.02;8.13;;;;;;;;;;5022501;28;20511;-85
2023/09/12 07:31:04;;;;;;;9.38;8.48;;;;;;;;;;5019663;28;20858;-82
2023/09/12 07:33:30;;;;;;;9.30;8.30;;;;;;;;;;5021087;28;20389;-84
2023/09/12 07:35:56;;;;;;;9.02;8.27;;;;;;;;;;5021736;28;20877;-82
2023/09/12 07:38:22;;;;;;;9.63;8.73;;;;;;;;;;5022330;28;20393;-83
2023/09/12 07:40:49;;;;;;;10.20;9.20;;;;;;;;;;5022019;28;20486;-82
2023/09/12 07:43:16;;;;;;;10.02;9.00;;;;;;;;;;5021060;28;20406;-82
2023/09/12 07:45:42;;;;;;;10.25;9.25;;;;;;;;;;5021329;28;20380;-85
2023/09/12 07:48:10;;;;;;;9.50;8.70;;;;;;;;;;5035765;28;20455;-81
2023/09/12 07:50:38;;;;;;;8.98;8.15;;;;;;;;;;5020641;28;20519;-84
2023/09/12 07:53:04;;;;;;;10.07;9.05;;;;;;;;;;5020515;28;20388;-84
2023/09/12 07:55:35;;;;;;;10.38;9.35;;;;;;;;;;5020280;28;20380;-84
2023/09/12 07:58:01;;;;;;;10.50;9.48;;;;;;;;;;5018505;28;20401;-84
2023/09/12 08:00:27;;;;;;;10.93;9.77;;;;;;;;;;5018376;28;20424;-82
2023/09/12 08:02:53;;;;;;;14.60;11.67;;;;;;;;;;5018709;28;20824;-82
2023/09/12 08:05:19;;;;;;;12.13;10.93;;;;;;;;;;5019058;28;20393;-82
2023/09/12 08:07:45;;;;;;;14.00;12.43;;;;;;;;;;5026828;28;20392;-82
2023/09/12 08:10:11;;;;;;;13.77;12.40;;;;;;;;;;5018335;28;20389;-82
2023/09/12 08:12:38;;;;;;;15.27;13.27;;;;;;;;;;5017891;28;20476;-82
2023/09/12 08:15:04;;;;;;;14.98;13.48;;;;;;;;;;5018228;28;20583;-82
2023/09/12 08:17:30;;;;;;;19.00;14.48;;;;;;;;;;5018262;28;20418;-83
2023/09/12 08:19:56;;;;;;;18.83;15.15;;;;;;;;;;5019177;28;20429;-83
2023/09/12 08:22:22;;;;;;;26.67;18.67;;;;;;;;;;5018643;28;20471;-82
2023/09/12 08:24:48;;;;;;;24.13;17.73;;;;;;;;;;5019119;28;20416;-82
2023/09/12 08:27:14;;;;;;;20.50;16.63;;;;;;;;;;5018654;28;20377;-82
2023/09/12 08:29:41;;;;;;;22.13;16.90;;;;;;;;;;5018890;28;20400;-82
2023/09/12 08:32:07;;;;;;;20.80;16.90;;;;;;;;;;5018541;28;20851;-83
2023/09/12 08:34:33;;;;;;;20.10;16.83;;;;;;;;;;5017171;28;20385;-82
2023/09/12 08:36:59;;;;;;;20.48;17.38;;;;;;;;;;5016005;28;20385;-82
2023/09/12 08:39:26;;;;;;;25.38;18.10;;;;;;;;;;5016796;28;20944;-81
2023/09/12 08:41:53;;;;;;;25.25;17.77;;;;;;;;;;5017413;28;20798;-81
2023/09/12 08:44:20;;;;;;;25.47;18.53;;;;;;;;;;5018490;28;20385;-82
2023/09/12 08:46:46;;;;;;;23.27;18.10;;;;;;;;;;5018640;28;20388;-82
2023/09/12 08:49:12;;;;;;;26.88;18.23;;;;;;;;;;5019074;28;20847;-82
2023/09/12 08:51:39;;;;;;;27.25;18.77;;;;;;;;;;5004995;28;20412;-82
2023/09/12 08:54:05;;;;;;;26.73;17.98;;;;;;;;;;5018620;28;20377;-82
2023/09/12 08:56:32;;;;;;;23.90;17.92;;;;;;;;;;5018231;28;20387;-82
2023/09/12 08:58:59;;;;;;;21.30;16.50;;;;;;;;;;5018773;28;20451;-83
2023/09/12 09:01:28;;;;;;;21.42;16.48;;;;;;;;;;5018950;28;20897;-83
2023/09/12 09:03:54;;;;;;;24.17;15.98;;;;;;;;;;5017916;28;20397;-83
2023/09/12 09:06:22;;;;;;;19.92;15.60;;;;;;;;;;5017008;28;20392;-83
2023/09/12 09:08:49;;;;;;;20.70;15.57;;;;;;;;;;5018196;28;20389;-82
2023/09/12 09:11:14;;;;;;;22.98;17.45;;;;;;;;;;5018103;28;20403;-83
2023/09/12 09:13:41;;;;;;;14.53;12.67;;;;;;;;;;5018039;28;20834;-82
2023/09/12 09:16:12;;;;;;;15.40;12.60;;;;;;;;;;5018725;28;20393;-82
2023/09/12 09:18:50;;;;;;;16.73;14.93;;;;;;;;;;5018482;28;20436;-83
2023/09/12 09:21:20;;;;;;;18.40;15.25;;;;;;;;;;5017656;28;20399;-82
2023/09/12 09:23:47;;;;;;;13.88;12.55;;;;;;;;;;5016595;28;20392;-83
2023/09/12 09:26:15;;;;;;;15.57;11.77;;;;;;;;;;5023227;28;20858;-83
2023/09/12 09:28:41;;;;;;;10.88;9.93;;;;;;;;;;5018100;28;20401;-81
2023/09/12 09:31:11;;;;;;;13.93;12.40;;;;;;;;;;5017480;28;20467;-82
2023/09/12 09:33:38;;;;;;;11.20;10.20;;;;;;;;;;5017270;28;20889;-83
2023/09/12 09:36:05;;;;;;;15.03;13.53;;;;;;;;;;5017414;28;20381;-83
2023/09/12 09:38:31;;;;;;;16.83;13.45;;;;;;;;;;5017872;28;20434;-83
2023/09/12 09:40:57;;;;;;;11.57;10.57;;;;;;;;;;5017131;28;20393;-83
2023/09/12 09:43:24;;;;;;;11.27;10.23;;;;;;;;;;5018331;28;20385;-84
2023/09/12 09:45:51;;;;;;;10.48;9.63;;;;;;;;;;5017463;28;20416;-84
2023/09/12 09:48:21;;;;;;;10.38;9.57;;;;;;;;;;5017210;28;20381;-84
2023/09/12 09:50:47;;;;;;;12.13;10.98;;;;;;;;;;5017392;28;20381;-84
2023/09/12 09:53:13;;;;;;;13.20;11.77;;;;;;;;;;5017385;28;20426;-84
2023/09/12 09:55:39;;;;;;;13.68;12.00;;;;;;;;;;5017401;28;20838;-84
2023/09/12 09:58:08;;;;;;;12.32;11.23;;;;;;;;;;5017208;28;20381;-83
2023/09/12 10:00:35;;;;;;;10.90;9.65;;;;;;;;;;5017764;28;20424;-84
2023/09/12 10:03:03;;;;;;;11.07;9.93;;;;;;;;;;5017056;28;20397;-84
2023/09/12 10:05:32;;;;;;;12.90;11.70;;;;;;;;;;5017429;28;20759;-84
2023/09/12 10:07:58;;;;;;;19.38;15.52;;;;;;;;;;5017145;28;20399;-84
2023/09/12 10:10:25;;;;;;;14.70;12.93;;;;;;;;;;5017732;28;20393;-84
2023/09/12 10:12:52;;;;;;;11.00;10.05;;;;;;;;;;5019676;28;20839;-85
2023/09/12 10:15:19;;;;;;;12.93;11.80;;;;;;;;;;5017847;28;20388;-84
2023/09/12 10:17:47;;;;;;;11.35;10.35;;;;;;;;;;5017329;28;20400;-84
2023/09/12 10:20:18;;;;;;;11.40;10.18;;;;;;;;;;5017504;28;20467;-86
2023/09/12 10:22:52;;;;;;;13.25;11.88;;;;;;;;;;5017367;28;20692;-85
2023/09/12 10:25:18;;;;;;;14.23;12.73;;;;;;;;;;5017301;28;20388;-84
2023/09/12 10:27:44;;;;;;;10.65;9.65;;;;;;;;;;5017744;28;20377;-84
2023/09/12 10:30:11;;;;;;;10.48;9.48;;;;;;;;;;5017486;28;20862;-84
2023/09/12 10:32:37;;;;;;;10.05;9.20;;;;;;;;;;5015404;28;20389;-84
2023/09/12 10:35:04;;;;;;;10.25;9.40;;;;;;;;;;5016817;28;20396;-84
2023/09/12 10:37:32;;;;;;;10.30;9.40;;;;;;;;;;5016914;28;20429;-84
2023/09/12 10:40:00;;;;;;;10.02;9.07;;;;;;;;;;5015560;28;20448;-84
2023/09/12 10:42:28;;;;;;;9.38;8.55;;;;;;;;;;5017810;28;20449;-84
2023/09/12 10:44:54;;;;;;;8.90;8.20;;;;;;;;;;5021229;28;20385;-85
2023/09/12 10:47:21;;;;;;;8.77;8.07;;;;;;;;;;5018304;28;20385;-84
2023/09/12 10:49:47;;;;;;;8.95;8.18;;;;;;;;;;5017269;28;20456;-84
2023/09/12 10:52:24;;;;;;;8.80;8.00;;;;;;;;;;5016142;28;20479;-84
2023/09/12 10:54:50;;;;;;;9.00;7.72;;;;;;;;;;5017164;28;20395;-84
2023/09/12 10:57:16;;;;;;;8.52;7.82;;;;;;;;;;5017168;28;20421;-84
2023/09/12 11:00:10;;;;;;;8.95;8.05;;;;;;;;;;5018352;28;20416;-84
2023/09/12 11:02:43;;;;;;;8.40;7.80;;;;;;;;;;5015825;28;20425;-85
2023/09/12 11:05:27;;;;;;;8.77;7.97;;;;;;;;;;5017849;28;20813;-84
2023/09/12 11:07:57;;;;;;;8.75;8.00;;;;;;;;;;5011493;28;20396;-84
2023/09/12 11:10:24;;;;;;;8.40;7.68;;;;;;;;;;5016804;28;20400;-84
2023/09/12 11:12:53;;;;;;;7.80;7.20;;;;;;;;;;5015974;28;20388;-84
2023/09/12 11:15:21;;;;;;;8.25;7.55;;;;;;;;;;5009170;28;20392;-84
2023/09/12 11:17:48;;;;;;;9.27;8.55;;;;;;;;;;5004001;28;20395;-84
2023/09/12 11:20:15;;;;;;;9.27;8.47;;;;;;;;;;5008040;28;20768;-84
2023/09/12 11:22:42;;;;;;;8.55;7.85;;;;;;;;;;5009630;28;20408;-84
2023/09/12 11:25:27;;;;;;;8.77;7.97;;;;;;;;;;5019780;28;20388;-84
2023/09/12 11:27:55;;;;;;;9.07;8.18;;;;;;;;;;5011920;28;20397;-84
2023/09/12 11:30:22;;;;;;;10.10;9.10;;;;;;;;;;5007285;28;20386;-84
2023/09/12 11:32:50;;;;;;;8.77;8.07;;;;;;;;;;5005089;28;20773;-84
2023/09/12 11:35:17;;;;;;;8.25;7.45;;;;;;;;;;5016418;28;20385;-84
2023/09/12 11:37:50;;;;;;;8.50;7.90;;;;;;;;;;5002625;28;20404;-84
2023/09/12 11:40:17;;;;;;;8.57;7.77;;;;;;;;;;5013085;28;20562;-84
2023/09/12 11:42:49;;;;;;;7.78;7.13;;;;;;;;;;5008711;28;20398;-84
2023/09/12 11:45:18;;;;;;;7.43;6.82;;;;;;;;;;5016699;28;20388;-84
2023/09/12 11:47:44;;;;;;;7.80;7.10;;;;;;;;;;5011419;28;20435;-84
2023/09/12 11:50:26;;;;;;;7.57;6.80;;;;;;;;;;5007274;28;20381;-82
2023/09/12 11:53:03;;;;;;;7.07;6.37;;;;;;;;;;5005360;28;20477;-82
2023/09/12 11:55:31;;;;;;;7.60;6.90;;;;;;;;;;5016768;28;20392;-83
2023/09/12 11:57:57;;;;;;;7.65;7.05;;;;;;;;;;5012612;28;20422;-82
2023/09/12 12:00:26;;;;;;;8.60;8.00;;;;;;;;;;5021668;28;20537;-82
2023/09/12 12:02:52;;;;;;;9.15;8.25;;;;;;;;;;5009743;28;20942;-83
2023/09/12 12:05:18;;;;;;;8.68;7.97;;;;;;;;;;5009676;28;20744;-82
2023/09/12 12:07:46;;;;;;;9.77;8.88;;;;;;;;;;5033634;28;20473;-82
2023/09/12 12:10:13;;;;;;;8.82;8.10;;;;;;;;;;5017460;28;20473;-82
2023/09/12 12:12:39;;;;;;;8.98;8.07;;;;;;;;;;5018895;28;20779;-82
2023/09/12 12:15:11;;;;;;;7.18;6.68;;;;;;;;;;5021335;28;20467;-82
2023/09/12 12:17:40;;;;;;;6.95;6.40;;;;;;;;;;5026762;28;20549;-82
2023/09/12 12:20:08;;;;;;;7.35;6.78;;;;;;;;;;5021740;28;20818;-82
2023/09/12 12:22:34;;;;;;;6.43;5.93;;;;;;;;;;5018879;28;20389;-82
2023/09/12 12:25:06;;;;;;;6.72;6.22;;;;;;;;;;5018785;28;20377;-82
2023/09/12 12:27:32;;;;;;;7.17;6.47;;;;;;;;;;5019064;28;20392;-82
2023/09/12 12:29:58;;;;;;;7.27;6.67;;;;;;;;;;5017646;28;20447;-82
2023/09/12 12:32:24;;;;;;;6.82;6.28;;;;;;;;;;5019197;28;20420;-82
2023/09/12 12:34:50;;;;;;;7.28;6.60;;;;;;;;;;5018969;28;20400;-82
2023/09/12 12:37:17;;;;;;;13.55;12.15;;;;;;;;;;5018372;28;20392;-82
2023/09/12 12:39:43;;;;;;;10.33;9.27;;;;;;;;;;5018552;28;20416;-82
2023/09/12 12:42:10;;;;;;;8.60;7.80;;;;;;;;;;5020043;28;20388;-82
2023/09/12 12:44:40;;;;;;;7.53;6.82;;;;;;;;;;5018202;28;20460;-82
2023/09/12 12:47:07;;;;;;;6.68;6.18;;;;;;;;;;5018056;28;20428;-82
2023/09/12 12:49:43;;;;;;;6.63;5.93;;;;;;;;;;5018466;28;20468;-82
2023/09/12 12:52:12;;;;;;;6.50;5.90;;;;;;;;;;5019007;28;20808;-82
2023/09/12 12:54:43;;;;;;;7.53;6.93;;;;;;;;;;5016985;28;20416;-82
2023/09/12 12:57:12;;;;;;;7.95;7.15;;;;;;;;;;5018079;28;20416;-82
2023/09/12 12:59:39;;;;;;;9.73;8.82;;;;;;;;;;5018063;28;20503;-82
2023/09/12 13:02:06;;;;;;;9.18;8.30;;;;;;;;;;5018252;28;20391;-82
2023/09/12 13:04:38;;;;;;;11.32;10.13;;;;;;;;;;5018076;28;20482;-82
2023/09/12 13:07:05;;;;;;;7.23;6.40;;;;;;;;;;5018358;28;20385;-83
2023/09/12 13:09:31;;;;;;;7.88;6.18;;;;;;;;;;5023552;28;20391;-82
2023/09/12 13:11:57;;;;;;;6.10;5.60;;;;;;;;;;5016694;28;20762;-82
2023/09/12 13:14:30;;;;;;;5.78;5.28;;;;;;;;;;5017488;28;20396;-82
2023/09/12 13:16:56;;;;;;;11.02;6.03;;;;;;;;;;5017825;28;20396;-82
2023/09/12 13:19:22;;;;;;;6.07;5.38;;;;;;;;;;5018160;28;20424;-82
2023/09/12 13:21:48;;;;;;;5.85;5.32;;;;;;;;;;5017718;28;20747;-82
2023/09/12 13:24:14;;;;;;;5.93;5.18;;;;;;;;;;5016545;28;20401;-82
2023/09/12 13:26:40;;;;;;;7.75;6.13;;;;;;;;;;5017931;28;20392;-82
2023/09/12 13:29:06;;;;;;;7.07;6.07;;;;;;;;;;5017220;28;20902;-82
2023/09/12 13:31:32;;;;;;;6.30;5.70;;;;;;;;;;5017512;28;20401;-82
2023/09/12 13:33:58;;;;;;;5.57;5.00;;;;;;;;;;5017073;28;20455;-82
2023/09/12 13:36:24;;;;;;;5.55;5.18;;;;;;;;;;5016888;28;20393;-82
2023/09/12 13:38:51;;;;;;;5.65;5.18;;;;;;;;;;5019955;28;20415;-82
2023/09/12 13:41:17;;;;;;;5.93;5.43;;;;;;;;;;5017243;28;20427;-82
2023/09/12 13:43:47;;;;;;;5.55;4.95;;;;;;;;;;5016882;28;20435;-82
2023/09/12 13:46:13;;;;;;;6.40;5.80;;;;;;;;;;5017104;28;20393;-82
2023/09/12 13:48:39;;;;;;;6.75;5.22;;;;;;;;;;5016784;28;20395;-82
2023/09/12 13:51:05;;;;;;;6.30;5.45;;;;;;;;;;5016447;28;20459;-82
2023/09/12 13:53:31;;;;;;;14.40;5.88;;;;;;;;;;5016404;28;20423;-82
2023/09/12 13:55:58;;;;;;;6.60;6.00;;;;;;;;;;5017118;28;20424;-82
2023/09/12 13:58:24;;;;;;;7.18;5.40;;;;;;;;;;5016947;28;20813;-82
2023/09/12 14:00:51;;;;;;;8.15;5.95;;;;;;;;;;5017289;28;20412;-82
2023/09/12 14:03:17;;;;;;;5.63;5.13;;;;;;;;;;5017234;28;20742;-82
2023/09/12 14:05:43;;;;;;;6.00;5.50;;;;;;;;;;5017190;28;20393;-82
2023/09/12 14:08:09;;;;;;;5.60;5.20;;;;;;;;;;5016915;28;20395;-84
2023/09/12 14:10:35;;;;;;;5.77;5.37;;;;;;;;;;5017309;28;20400;-82
2023/09/12 14:13:01;;;;;;;5.93;5.32;;;;;;;;;;5018974;28;20393;-82
2023/09/12 14:15:27;;;;;;;5.80;5.30;;;;;;;;;;5030653;28;20423;-85
2023/09/12 14:17:53;;;;;;;5.72;5.22;;;;;;;;;;5016328;28;20814;-83
2023/09/12 14:20:19;;;;;;;6.28;5.20;;;;;;;;;;5016239;28;20967;-83
2023/09/12 14:22:45;;;;;;;7.93;5.68;;;;;;;;;;5016816;28;20385;-83
2023/09/12 14:25:14;;;;;;;10.35;5.90;;;;;;;;;;5016381;28;20393;-83
2023/09/12 14:27:41;;;;;;;6.10;5.33;;;;;;;;;;5016629;28;20416;-83
2023/09/12 14:30:07;;;;;;;5.75;5.32;;;;;;;;;;5016153;28;20691;-83
2023/09/12 14:32:33;;;;;;;6.15;5.38;;;;;;;;;;5016449;28;20404;-83
2023/09/12 14:34:59;;;;;;;8.20;6.00;;;;;;;;;;5015953;28;20385;-83
2023/09/12 14:37:27;;;;;;;6.83;5.77;;;;;;;;;;5015969;28;20389;-83